createdAt,value
2023-05-13T00:01:53.479Z,98536.31
2023-05-13T00:04:56.311Z,98530.94
2023-05-13T00:08:02.054Z,98530.34
2023-05-13T00:11:05.050Z,98532.31
2023-05-13T00:14:09.729Z,98528.41
2023-05-13T00:17:12.301Z,98529.22
2023-05-13T00:20:14.792Z,98530.00
2023-05-13T00:23:18.819Z,98525.34
2023-05-13T00:26:21.652Z,98526.81
2023-05-13T00:29:24.255Z,98530.00
2023-05-13T00:32:26.977Z,98530.00
2023-05-13T00:35:29.597Z,98520.66
2023-05-13T00:38:33.741Z,98530.13
2023-05-13T00:41:36.246Z,98521.31
2023-05-13T00:44:38.827Z,98526.81
2023-05-13T00:47:41.601Z,98530.59
2023-05-13T00:50:44.735Z,98535.19
2023-05-13T00:53:48.726Z,98529.00
2023-05-13T00:56:54.358Z,98525.91
2023-05-13T00:59:57.013Z,98532.22
2023-05-13T01:03:04.137Z,98532.88
2023-05-13T01:06:12.132Z,98525.59
2023-05-13T01:09:19.808Z,98516.66
2023-05-13T01:12:23.462Z,98525.13
2023-05-13T01:15:27.557Z,98531.41
2023-05-13T01:18:35.013Z,98529.47
2023-05-13T01:21:39.995Z,98524.00
2023-05-13T01:24:42.615Z,98527.16
2023-05-13T01:27:45.271Z,98521.28
2023-05-13T01:30:48.141Z,98535.25
2023-05-13T01:33:51.279Z,98531.97
2023-05-13T01:36:55.418Z,98533.06
2023-05-13T01:39:57.994Z,98538.97
2023-05-13T01:43:00.546Z,98537.69
2023-05-13T01:46:03.307Z,98542.53
2023-05-13T01:49:07.725Z,98540.78
2023-05-13T01:52:11.525Z,98535.97
2023-05-13T01:55:14.059Z,98539.56
2023-05-13T01:58:16.518Z,98536.69
2023-05-13T02:01:21.094Z,98544.97
2023-05-13T02:04:24.897Z,98549.03
2023-05-13T02:07:28.760Z,98542.44
2023-05-13T02:10:31.287Z,98541.97
2023-05-13T02:13:33.834Z,98544.97
2023-05-13T02:16:36.414Z,98538.44
2023-05-13T02:19:38.944Z,98539.84
2023-05-13T02:22:42.810Z,98544.47
2023-05-13T02:25:45.630Z,98551.19
2023-05-13T02:28:49.099Z,98552.59
2023-05-13T02:31:51.883Z,98554.19
2023-05-13T02:34:54.413Z,98549.50
2023-05-13T02:37:58.951Z,98551.78
2023-05-13T02:41:01.955Z,98555.53
2023-05-13T02:44:04.870Z,98550.19
2023-05-13T02:47:07.663Z,98559.56
2023-05-13T02:50:12.416Z,98555.53
2023-05-13T02:53:16.455Z,98546.97
2023-05-13T02:56:19.465Z,98550.06
2023-05-13T02:59:21.936Z,98551.78
2023-05-13T03:02:24.743Z,98552.94
2023-05-13T03:05:29.757Z,98547.78
2023-05-13T03:08:34.062Z,98542.19
2023-05-13T03:11:36.701Z,98555.59
2023-05-13T03:14:40.095Z,98557.41
2023-05-13T03:17:44.281Z,98551.66
2023-05-13T03:20:46.834Z,98558.75
2023-05-13T03:23:50.755Z,98555.41
2023-05-13T03:26:53.345Z,98556.69
2023-05-13T03:29:56.087Z,98550.97
2023-05-13T03:32:58.887Z,98554.31
2023-05-13T03:36:01.482Z,98559.59
2023-05-13T03:39:05.391Z,98570.56
2023-05-13T03:42:08.207Z,98565.69
2023-05-13T03:45:11.687Z,98565.03
2023-05-13T03:48:14.267Z,98565.84
2023-05-13T03:51:16.871Z,98568.88
2023-05-13T03:54:20.798Z,98573.25
2023-05-13T03:57:23.467Z,98565.16
2023-05-13T04:00:26.095Z,98570.81
2023-05-13T04:03:28.640Z,98571.16
2023-05-13T04:06:31.789Z,98570.03
2023-05-13T04:09:35.697Z,98572.09
2023-05-13T04:12:38.751Z,98569.69
2023-05-13T04:15:41.590Z,98579.19
2023-05-13T04:18:44.408Z,98581.25
2023-05-13T04:21:46.889Z,98594.47
2023-05-13T04:24:52.078Z,98590.78
2023-05-13T04:27:54.675Z,98592.94
2023-05-13T04:30:57.537Z,98590.00
2023-05-13T04:34:00.135Z,98594.94
2023-05-13T04:37:02.834Z,98595.09
2023-05-13T04:40:08.330Z,98603.75
2023-05-13T04:43:11.002Z,98599.31
2023-05-13T04:46:13.613Z,98600.81
2023-05-13T04:49:16.259Z,98603.34
2023-05-13T04:52:19.586Z,98607.50
2023-05-13T04:55:23.554Z,98606.34
2023-05-13T04:58:26.126Z,98615.06
2023-05-13T05:01:29.138Z,98608.91
2023-05-13T05:04:31.841Z,98620.06
2023-05-13T05:07:34.927Z,98620.06
2023-05-13T05:10:38.727Z,98630.38
2023-05-13T05:13:41.513Z,98617.75
2023-05-13T05:16:44.006Z,98623.63
2023-05-13T05:19:46.548Z,98623.88
2023-05-13T05:22:50.183Z,98626.53
2023-05-13T05:26:04.220Z,98622.19
2023-05-13T05:29:10.911Z,98627.22
2023-05-13T05:32:13.532Z,98627.66
2023-05-13T05:35:17.037Z,98635.81
2023-05-13T05:38:19.557Z,98634.00
2023-05-13T05:41:23.655Z,98645.75
2023-05-13T05:44:26.237Z,98635.53
2023-05-13T05:47:28.883Z,98645.13
2023-05-13T05:50:32.150Z,98648.88
2023-05-13T05:53:37.506Z,98652.22
2023-05-13T05:56:41.448Z,98652.13
2023-05-13T05:59:44.104Z,98648.25
2023-05-13T06:02:46.851Z,98652.94
2023-05-13T06:05:49.438Z,98650.78
2023-05-13T06:08:52.095Z,98653.19
2023-05-13T06:11:55.980Z,98653.31
2023-05-13T06:14:58.600Z,98658.50
2023-05-13T06:18:04.687Z,98656.22
2023-05-13T06:21:07.243Z,98656.78
2023-05-13T06:24:09.925Z,98656.22
2023-05-13T06:27:13.763Z,98661.31
2023-05-13T06:30:16.391Z,98665.06
2023-05-13T06:33:19.125Z,98668.31
2023-05-13T06:36:21.856Z,98660.97
2023-05-13T06:39:24.443Z,98672.00
2023-05-13T06:42:29.204Z,98665.25
2023-05-13T06:45:31.854Z,98661.94
2023-05-13T06:48:34.492Z,98667.88
2023-05-13T06:51:37.680Z,98663.88
2023-05-13T06:54:40.358Z,98662.38
2023-05-13T06:57:46.626Z,98669.00
2023-05-13T07:00:49.534Z,98668.50
2023-05-13T07:03:52.374Z,98675.06
2023-05-13T07:06:55.280Z,98669.47
2023-05-13T07:09:57.920Z,98671.41
2023-05-13T07:13:02.018Z,98677.06
2023-05-13T07:16:04.996Z,98671.28
2023-05-13T07:19:07.757Z,98665.72
2023-05-13T07:22:10.511Z,98670.81
2023-05-13T07:25:13.518Z,98676.34
2023-05-13T07:28:17.437Z,98683.56
2023-05-13T07:31:20.445Z,98680.88
2023-05-13T07:34:23.292Z,98683.53
2023-05-13T07:37:25.891Z,98681.47
2023-05-13T07:40:28.567Z,98687.66
2023-05-13T07:43:34.934Z,98664.81
2023-05-13T07:46:37.606Z,98670.88
2023-05-13T07:49:40.242Z,98670.53
2023-05-13T07:52:43.257Z,98677.88
2023-05-13T07:55:45.732Z,98670.50
2023-05-13T07:58:50.326Z,98680.88
2023-05-13T08:01:52.977Z,98682.84
2023-05-13T08:04:55.664Z,98677.09
2023-05-13T08:07:59.309Z,98676.00
2023-05-13T08:11:01.881Z,98680.22
2023-05-13T08:14:07.212Z,98681.53
2023-05-13T08:17:09.769Z,98687.56
2023-05-13T08:20:15.064Z,98686.03
2023-05-13T08:23:17.687Z,98680.00
2023-05-13T08:26:20.497Z,98693.78
2023-05-13T08:29:24.447Z,98693.38
2023-05-13T08:32:27.002Z,98690.31
2023-05-13T08:35:29.812Z,98694.16
2023-05-13T08:38:33.468Z,98694.00
2023-05-13T08:41:36.536Z,98689.47
2023-05-13T08:44:41.157Z,98697.63
2023-05-13T08:47:51.482Z,98687.59
2023-05-13T08:50:54.138Z,98690.97
2023-05-13T08:53:57.457Z,98701.97
2023-05-13T08:57:00.033Z,98701.88
2023-05-13T09:00:04.702Z,98700.56
2023-05-13T09:03:07.707Z,98700.19
2023-05-13T09:06:10.287Z,98700.56
2023-05-13T09:09:12.978Z,98709.69
2023-05-13T09:12:45.470Z,98704.00
2023-05-13T09:15:51.562Z,98703.59
2023-05-13T09:18:58.848Z,98700.78
2023-05-13T09:22:01.485Z,98701.97
2023-05-13T09:25:04.516Z,98699.63
2023-05-13T09:28:08.437Z,98693.97
2023-05-13T09:31:12.549Z,98694.97
2023-05-13T09:34:15.442Z,98705.22
2023-05-13T09:37:19.282Z,98690.91
2023-05-13T09:40:22.211Z,98700.66
2023-05-13T09:43:27.655Z,98699.81
2023-05-13T09:46:32.149Z,98705.69
2023-05-13T09:49:35.064Z,98704.50
2023-05-13T09:52:38.328Z,98702.59
2023-05-13T09:55:44.962Z,98710.81
2023-05-13T09:58:52.402Z,98703.69
2023-05-13T10:02:00.029Z,98713.66
2023-05-13T10:05:02.999Z,98710.06
2023-05-13T10:08:06.367Z,98715.66
2023-05-13T10:11:09.416Z,98722.50
2023-05-13T10:14:12.224Z,98720.31
2023-05-13T10:17:16.387Z,98716.44
2023-05-13T10:20:19.194Z,98716.25
2023-05-13T10:23:22.536Z,98711.34
2023-05-13T10:26:24.975Z,98703.22
2023-05-13T10:29:27.611Z,98711.50
2023-05-13T10:32:32.019Z,98715.09
2023-05-13T10:35:40.370Z,98703.41
2023-05-13T10:38:54.809Z,98707.41
2023-05-13T10:42:21.149Z,98703.66
2023-05-13T10:45:26.921Z,98703.78
2023-05-13T10:48:39.563Z,98708.75
2023-05-13T10:51:45.928Z,98714.22
2023-05-13T10:55:01.287Z,98709.00
2023-05-13T10:58:12.159Z,98703.88
2023-05-13T11:01:16.850Z,98712.34
2023-05-13T11:04:22.219Z,98709.88
2023-05-13T11:07:24.847Z,98711.69
2023-05-13T11:10:29.931Z,98699.06
2023-05-13T11:13:38.330Z,98704.41
2023-05-13T11:16:46.804Z,98701.41
2023-05-13T11:19:51.996Z,98700.31
2023-05-13T11:22:54.729Z,98702.41
2023-05-13T11:26:17.107Z,98700.00
2023-05-13T11:29:30.859Z,98711.34
2023-05-13T11:32:58.251Z,98705.25
2023-05-13T11:36:04.793Z,98703.50
2023-05-13T11:39:10.987Z,98717.22
2023-05-13T11:42:13.602Z,98709.16
2023-05-13T11:45:17.645Z,98706.38
2023-05-13T11:48:22.072Z,98704.63
2023-05-13T11:51:26.272Z,98705.41
2023-05-13T11:54:28.887Z,98707.22
2023-05-13T11:57:33.139Z,98706.47
2023-05-13T12:00:36.043Z,98707.19
2023-05-13T12:03:38.552Z,98703.22
2023-05-13T12:06:46.664Z,98702.91
2023-05-13T12:09:49.387Z,98701.88
2023-05-13T12:12:52.198Z,98708.94
2023-05-13T12:15:55.788Z,98709.88
2023-05-13T12:19:00.756Z,98713.75
2023-05-13T12:22:06.577Z,98707.81
2023-05-13T12:25:41.389Z,98709.09
2023-05-13T12:28:44.047Z,98705.47
2023-05-13T12:32:04.297Z,98708.88
2023-05-13T12:35:13.585Z,98717.03
2023-05-13T12:38:18.648Z,98713.34
2023-05-13T12:41:22.751Z,98711.16
2023-05-13T12:44:26.699Z,98713.09
2023-05-13T12:47:29.323Z,98718.00
2023-05-13T12:50:31.892Z,98710.19
2023-05-13T12:53:35.843Z,98705.47
2023-05-13T12:56:40.024Z,98705.50
2023-05-13T12:59:42.763Z,98710.38
2023-05-13T13:02:45.688Z,98716.75
2023-05-13T13:05:48.339Z,98709.50
2023-05-13T13:08:52.416Z,98707.47
2023-05-13T13:11:55.040Z,98693.94
2023-05-13T13:14:58.036Z,98698.16
2023-05-13T13:18:00.769Z,98708.25
2023-05-13T13:21:05.248Z,98701.13
2023-05-13T13:24:09.477Z,98704.34
2023-05-13T13:27:12.458Z,98697.75
2023-05-13T13:30:15.706Z,98695.44
2023-05-13T13:33:18.244Z,98682.91
2023-05-13T13:36:20.836Z,98691.56
2023-05-13T13:39:24.837Z,98687.13
2023-05-13T13:42:40.238Z,98680.13
2023-05-13T13:45:46.425Z,98667.75
2023-05-13T13:48:48.983Z,98670.78
2023-05-13T13:51:51.940Z,98669.81
2023-05-13T13:54:56.020Z,98672.56
2023-05-13T13:57:58.689Z,98674.56
2023-05-13T14:01:01.883Z,98673.34
2023-05-13T14:04:14.260Z,98676.91
2023-05-13T14:07:16.866Z,98676.50
2023-05-13T14:10:21.026Z,98669.25
2023-05-13T14:13:23.743Z,98674.91
2023-05-13T14:16:26.385Z,98669.22
2023-05-13T14:19:29.036Z,98676.94
2023-05-13T14:22:31.660Z,98672.94
2023-05-13T14:25:36.477Z,98674.63
2023-05-13T14:28:39.046Z,98673.47
2023-05-13T14:31:41.606Z,98675.63
2023-05-13T14:34:44.437Z,98683.28
2023-05-13T14:37:46.908Z,98672.50
2023-05-13T14:40:50.759Z,98680.44
2023-05-13T14:43:53.326Z,98673.91
2023-05-13T14:46:56.056Z,98668.50
2023-05-13T14:49:58.759Z,98669.41
2023-05-13T14:53:01.348Z,98665.16
2023-05-13T14:56:05.927Z,98660.28
2023-05-13T14:59:08.696Z,98657.50
2023-05-13T15:02:13.649Z,98652.69
2023-05-13T15:08:43.282Z,98656.13
2023-05-13T15:11:47.222Z,98648.63
2023-05-13T15:14:53.174Z,98650.72
2023-05-13T15:17:56.874Z,98640.78
2023-05-13T15:20:59.624Z,98640.34
2023-05-13T15:24:02.226Z,98643.34
2023-05-13T15:27:06.842Z,98645.97
2023-05-13T15:30:09.885Z,98641.38
2023-05-13T15:33:12.501Z,98637.59
2023-05-13T15:36:15.071Z,98637.00
2023-05-13T15:39:17.699Z,98631.72
2023-05-13T15:42:21.595Z,98636.34
2023-05-13T15:45:24.121Z,98625.84
2023-05-13T15:48:30.910Z,98620.53
2023-05-13T15:51:33.682Z,98619.59
2023-05-13T15:54:36.200Z,98611.94
2023-05-13T15:57:40.743Z,98605.88
2023-05-13T16:00:44.179Z,98615.72
2023-05-13T16:03:47.202Z,98613.69
2023-05-13T16:06:49.747Z,98608.28
2023-05-13T16:09:52.800Z,98614.75
2023-05-13T16:12:56.654Z,98612.59
2023-05-13T16:15:59.200Z,98611.28
2023-05-13T16:25:36.003Z,98612.19
2023-05-13T16:28:40.202Z,98613.56
2023-05-13T16:31:42.726Z,98611.38
2023-05-13T16:34:45.471Z,98608.22
2023-05-13T16:37:48.284Z,98614.19
2023-05-13T16:40:50.990Z,98609.41
2023-05-13T16:43:54.860Z,98612.09
2023-05-13T16:46:57.378Z,98607.34
2023-05-13T16:49:59.938Z,98608.53
2023-05-13T16:53:02.449Z,98610.00
2023-05-13T16:56:05.581Z,98613.84
2023-05-13T16:59:13.337Z,98605.19
2023-05-13T17:02:15.981Z,98603.09
2023-05-13T17:05:19.048Z,98606.41
2023-05-13T17:08:24.228Z,98598.25
2023-05-13T17:11:26.980Z,98603.81
2023-05-13T17:14:31.170Z,98598.72
2023-05-13T17:17:33.702Z,98599.78
2023-05-13T17:20:36.285Z,98604.19
2023-05-13T17:23:38.837Z,98601.84
2023-05-13T17:26:41.307Z,98606.53
2023-05-13T17:29:45.098Z,98608.63
2023-05-13T17:32:47.835Z,98604.16
2023-05-13T17:35:50.683Z,98603.31
2023-05-13T17:38:53.323Z,98597.66
2023-05-13T17:41:55.955Z,98601.91
2023-05-13T17:45:01.051Z,98605.00
2023-05-13T17:48:04.100Z,98600.16
2023-05-13T17:51:06.699Z,98598.81
2023-05-13T17:54:11.243Z,98594.66
2023-05-13T17:57:14.348Z,98592.47
2023-05-13T18:00:18.990Z,98602.31
2023-05-13T18:03:22.641Z,98599.91
2023-05-13T18:06:25.389Z,98603.69
2023-05-13T18:09:28.120Z,98596.16
2023-05-13T18:12:30.710Z,98597.22
2023-05-13T18:15:34.656Z,98601.44
2023-05-13T18:18:37.307Z,98593.78
2023-05-13T18:21:39.928Z,98604.28
2023-05-13T18:24:42.394Z,98608.13
2023-05-13T18:27:45.069Z,98613.34
2023-05-13T18:30:48.914Z,98610.09
2023-05-13T18:33:51.427Z,98618.41
2023-05-13T18:36:54.199Z,98616.81
2023-05-13T18:39:57.450Z,98615.94
2023-05-13T18:43:00.010Z,98620.78
2023-05-13T18:46:04.016Z,98620.25
2023-05-13T18:49:06.590Z,98617.25
2023-05-13T18:52:09.117Z,98611.84
2023-05-13T18:55:11.642Z,98616.72
2023-05-13T18:58:14.499Z,98626.69
2023-05-13T19:01:18.591Z,98634.69
2023-05-13T19:04:21.429Z,98636.81
2023-05-13T19:07:24.190Z,98649.50
2023-05-13T19:10:26.760Z,98642.84
2023-05-13T19:13:45.768Z,98647.94
2023-05-13T19:16:51.022Z,98634.13
2023-05-13T19:19:53.539Z,98647.13
2023-05-13T19:22:56.014Z,98639.72
2023-05-13T19:25:59.008Z,98644.66
2023-05-13T19:29:01.955Z,98648.81
2023-05-13T19:32:06.545Z,98644.00
2023-05-13T19:35:10.360Z,98647.31
2023-05-13T19:38:13.119Z,98653.25
2023-05-13T19:41:15.783Z,98657.28
2023-05-13T19:44:18.364Z,98654.91
2023-05-13T19:47:22.321Z,98655.97
2023-05-13T19:50:25.271Z,98653.47
2023-05-13T19:53:27.983Z,98654.97
2023-05-13T19:56:31.556Z,98657.25
2023-05-13T19:59:35.762Z,98659.03
2023-05-13T20:02:39.831Z,98665.34
2023-05-13T20:05:42.578Z,98665.78
2023-05-13T20:08:45.236Z,98671.03
2023-05-13T20:11:47.753Z,98672.94
2023-05-13T20:14:51.862Z,98662.84
2023-05-13T20:17:56.121Z,98671.63
2023-05-13T20:20:58.796Z,98673.78
2023-05-13T20:24:01.472Z,98669.88
2023-05-13T20:27:04.485Z,98661.84
2023-05-13T20:30:08.497Z,98672.84
2023-05-13T20:33:12.370Z,98656.53
2023-05-13T20:36:14.978Z,98653.53
2023-05-13T20:39:17.829Z,98655.25
2023-05-13T20:42:22.284Z,98661.69
2023-05-13T20:45:24.770Z,98660.75
2023-05-13T20:48:31.802Z,98653.31
2023-05-13T20:51:34.458Z,98655.19
2023-05-13T20:54:37.018Z,98654.84
2023-05-13T20:57:39.553Z,98649.72
2023-05-13T21:00:42.070Z,98641.47
2023-05-13T21:03:46.266Z,98644.22
2023-05-13T21:06:49.701Z,98636.56
2023-05-13T21:09:52.257Z,98634.91
2023-05-13T21:12:54.782Z,98642.25
2023-05-13T21:15:57.508Z,98645.56
2023-05-13T21:19:03.823Z,98646.81
2023-05-13T21:22:06.357Z,98658.94
2023-05-13T21:25:09.776Z,98654.84
2023-05-13T21:28:12.288Z,98651.53
2023-05-13T21:31:14.887Z,98650.47
2023-05-13T21:34:18.798Z,98648.75
2023-05-13T21:37:21.378Z,98655.03
2023-05-13T21:40:24.121Z,98647.41
2023-05-13T21:43:26.952Z,98648.66
2023-05-13T21:46:29.471Z,98637.94
2023-05-13T21:49:33.392Z,98646.25
2023-05-13T21:52:35.916Z,98642.38
2023-05-13T21:55:38.448Z,98642.03
2023-05-13T21:58:41.126Z,98635.03
2023-05-13T22:01:43.605Z,98639.28
2023-05-13T22:04:47.503Z,98632.19
2023-05-13T22:07:50.018Z,98634.25
2023-05-13T22:10:52.515Z,98629.69
2023-05-13T22:13:55.160Z,98621.69
2023-05-13T22:17:08.417Z,98623.81
2023-05-13T22:20:13.787Z,98625.19
2023-05-13T22:23:16.327Z,98620.94
2023-05-13T22:26:18.862Z,98620.16
2023-05-13T22:29:21.447Z,98626.44
2023-05-13T22:32:24.469Z,98625.41
2023-05-13T22:35:29.793Z,98618.44
2023-05-13T22:38:32.263Z,98620.38
2023-05-13T22:41:34.845Z,98617.63
2023-05-13T22:44:37.814Z,98621.44
2023-05-13T22:47:40.298Z,98622.69
2023-05-13T22:50:44.178Z,98624.78
2023-05-13T22:53:47.088Z,98619.78
2023-05-13T22:56:49.710Z,98619.34
2023-05-13T22:59:52.237Z,98616.97
2023-05-13T23:02:54.768Z,98616.59
2023-05-13T23:05:58.666Z,98613.88
2023-05-13T23:09:01.685Z,98610.44
2023-05-13T23:12:04.467Z,98607.22
2023-05-13T23:15:10.580Z,98609.88
2023-05-13T23:18:13.303Z,98606.78
2023-05-13T23:21:17.344Z,98605.53
2023-05-13T23:24:19.903Z,98592.91
2023-05-13T23:27:22.481Z,98599.22
2023-05-13T23:30:25.254Z,98590.41
2023-05-13T23:33:28.238Z,98584.13
2023-05-13T23:36:32.410Z,98581.03
2023-05-13T23:39:35.157Z,98575.66
2023-05-13T23:42:37.748Z,98567.88
2023-05-13T23:45:40.324Z,98569.47
2023-05-13T23:48:43.037Z,98568.78
2023-05-13T23:51:46.953Z,98565.22
2023-05-13T23:54:49.512Z,98566.03
2023-05-13T23:57:52.174Z,98564.56
